Terminal Aerodrome Forecast
Issued by NWS Lake Charles, LA

Home | Current Version | Previous Version | Text Only | Print | Product List | Glossary On
Versions: 1 2 3 4 5 6 7 8 9 10 11 12 13 14 15 16 17 18 19
000
FTUS44 KLCH 172343
TAFAEX
TAF
KAEX 172343Z 1800/1824 VRB04KT P6SM OVC250
     FM180300 VRB03KT P6SM OVC070
     FM180600 06003KT 5SM BR VCTS BKN007 OVC015CB PROB30 1809/1815
      2SM TSRA OVC015CB
     FM181500 16007KT 4SM -TSRA BR OVC007CB=

USA.gov is the U.S. government's official web portal to all federal, state and local government web resources and services.